^^
Station Historical Data
Daily Summary for June 19, 2017 Units:  Metric    English   Both
« Previous Day
Next Day »
Daily Weekly Monthly Yearly Custom
  High: Low: Average:
Temperature: 27.9 °C 12.2 °C 19.7 °C
Dew Point: 16.1 °C 11.3 °C 13.8 °C
Humidity: 95 % 45 % 71 %
Wind Speed: 16.1 km/h 0 km/h 3.9 km/h
Wind Gust: 20.9 km/h - -
Wind:- - South
Pressure: 1024.6 hPa 1021.9 hPa -
Precipitation: 0 mm    
Historical Graphs
 
 


Weather Camera

Weather Camera




Garrymore Current Conditions

Find more about Weather in Mountmellick, IE
Click for weather forecast
Tabular Data for June 19, 2017
Time Temperature Dew Point Pressure Wind Wind Speed Wind Gust Humidity Rainfall Rate (Hourly) solar Conditions
00:00 16.1 °C 12.8 °C 1024.3 hPa Calm   3.2 km/h 81 % 0 mm 0.0 W/m2 CLR
00:10 15.9 °C 12.8 °C 1024.3 hPa North 1.6 km/h 3.2 km/h 82 % 0 mm 0.0 W/m2 CLR
00:15 15.7 °C 12.7 °C 1024.3 hPa NE 1.6 km/h 3.2 km/h 82 % 0 mm 0.0 W/m2 CLR
00:20 15.6 °C 12.6 °C 1024.3 hPa NE 1.6 km/h 3.2 km/h 82 % 0 mm 0.0 W/m2 CLR
00:25 14.7 °C 12 °C 1024.3 hPa NE 1.6 km/h 4.8 km/h 84 % 0 mm 0.0 W/m2 CLR
00:30 14.6 °C 12.1 °C 1023.9 hPa Calm   4.8 km/h 85 % 0 mm 0.0 W/m2 CLR
00:35 14.6 °C 12.1 °C 1023.9 hPa NE 1.6 km/h 3.2 km/h 85 % 0 mm 0.0 W/m2 CLR
00:40 14.5 °C 12.2 °C 1023.9 hPa Calm   1.6 km/h 86 % 0 mm 0.0 W/m2 CLR
00:45 14.5 °C 12.3 °C 1024.3 hPa Calm     87 % 0 mm 0.0 W/m2 CLR
00:50 14.2 °C 12.1 °C 1024.3 hPa Calm   3.2 km/h 87 % 0 mm 0.0 W/m2 CLR
00:55 14.1 °C 12 °C 1023.9 hPa Calm   1.6 km/h 87 % 0 mm 0.0 W/m2 CLR
01:00 14 °C 11.9 °C 1023.9 hPa Calm   1.6 km/h 87 % 0 mm 0.0 W/m2 CLR
01:05 14 °C 11.9 °C 1023.9 hPa Calm   1.6 km/h 87 % 0 mm 0.0 W/m2 CLR
01:10 14 °C 12.1 °C 1023.9 hPa Calm     88 % 0 mm 0.0 W/m2 CLR
01:15 13.9 °C 12.1 °C 1023.9 hPa ENE 1.6 km/h 3.2 km/h 89 % 0 mm 0.0 W/m2 CLR
01:20 13.9 °C 12.1 °C 1023.9 hPa Calm   1.6 km/h 89 % 0 mm 0.0 W/m2 CLR
01:25 13.9 °C 12.1 °C 1023.9 hPa SE 1.6 km/h 3.2 km/h 89 % 0 mm 0.0 W/m2 CLR
01:30 13.9 °C 12.1 °C 1023.9 hPa ENE 1.6 km/h 3.2 km/h 89 % 0 mm 0.0 W/m2 CLR
01:35 13.4 °C 11.6 °C 1023.6 hPa Calm   3.2 km/h 89 % 0 mm 0.0 W/m2 CLR
01:40 13.4 °C 11.6 °C 1023.6 hPa Calm   3.2 km/h 89 % 0 mm 0.0 W/m2 CLR
01:45 13.4 °C 11.6 °C 1023.9 hPa Calm   3.2 km/h 89 % 0 mm 0.0 W/m2 CLR
01:50 13.4 °C 11.6 °C 1023.6 hPa NE 1.6 km/h 3.2 km/h 89 % 0 mm 0.0 W/m2 CLR
01:55 13.4 °C 11.8 °C 1023.6 hPa ENE 1.6 km/h 3.2 km/h 90 % 0 mm 0.0 W/m2 CLR
02:00 13.3 °C 11.7 °C 1023.6 hPa Calm   1.6 km/h 90 % 0 mm 0.0 W/m2 CLR
02:05 13.3 °C 11.7 °C 1023.6 hPa Calm   1.6 km/h 90 % 0 mm 0.0 W/m2 CLR
02:10 13.3 °C 11.9 °C 1023.6 hPa Calm     91 % 0 mm 0.0 W/m2 CLR
02:15 13.3 °C 11.9 °C 1023.6 hPa Calm   1.6 km/h 91 % 0 mm 0.0 W/m2 CLR
02:20 13.3 °C 11.9 °C 1023.6 hPa Calm   1.6 km/h 91 % 0 mm 0.0 W/m2 CLR
02:25 13.3 °C 11.9 °C 1023.2 hPa Calm     91 % 0 mm 0.0 W/m2 CLR
02:30 13.3 °C 11.9 °C 1023.6 hPa Calm   1.6 km/h 91 % 0 mm 0.0 W/m2 CLR
02:35 13.2 °C 11.8 °C 1023.6 hPa Calm   3.2 km/h 91 % 0 mm 0.0 W/m2 CLR
02:40 13.1 °C 11.7 °C 1023.6 hPa Calm   3.2 km/h 91 % 0 mm 0.0 W/m2 CLR
02:45 13.1 °C 11.7 °C 1023.6 hPa Calm   1.6 km/h 91 % 0 mm 0.0 W/m2 CLR
02:50 13.1 °C 11.7 °C 1023.6 hPa ENE 1.6 km/h 3.2 km/h 91 % 0 mm 0.0 W/m2 CLR
02:55 13.1 °C 11.8 °C 1023.6 hPa Calm   3.2 km/h 92 % 0 mm 0.0 W/m2 CLR
03:00 13 °C 11.7 °C 1023.2 hPa Calm   1.6 km/h 92 % 0 mm 0.0 W/m2 CLR
03:10 13 °C 11.7 °C 1023.6 hPa Calm     92 % 0 mm 0.0 W/m2 CLR
03:15 13 °C 11.7 °C 1023.6 hPa Calm     92 % 0 mm 0.0 W/m2 CLR
03:20 12.9 °C 11.8 °C 1023.6 hPa Calm   3.2 km/h 93 % 0 mm 0.0 W/m2 CLR
03:25 13 °C 11.7 °C 1023.6 hPa Calm   3.2 km/h 92 % 0 mm 0.0 W/m2 CLR
03:30 12.9 °C 11.8 °C 1023.2 hPa Calm   3.2 km/h 93 % 0 mm 0.0 W/m2 CLR
03:35 12.9 °C 11.8 °C 1023.2 hPa Calm   3.2 km/h 93 % 0 mm 0.0 W/m2 CLR
03:40 12.8 °C 11.7 °C 1023.2 hPa Calm     93 % 0 mm 0.0 W/m2 CLR
03:45 12.8 °C 11.7 °C 1023.2 hPa Calm     93 % 0 mm 0.0 W/m2 CLR
03:50 12.8 °C 11.7 °C 1023.6 hPa Calm     93 % 0 mm 0.0 W/m2 CLR
03:55 12.7 °C 11.6 °C 1023.6 hPa Calm     93 % 0 mm 0.0 W/m2 CLR
04:00 12.7 °C 11.6 °C 1023.2 hPa South 1.6 km/h 3.2 km/h 93 % 0 mm 0.0 W/m2 CLR
04:05 12.7 °C 11.6 °C 1023.2 hPa South 1.6 km/h 3.2 km/h 93 % 0 mm 0.0 W/m2 CLR
04:10 12.6 °C 11.5 °C 1023.6 hPa Calm   3.2 km/h 93 % 0 mm 0.0 W/m2 CLR
04:20 12.7 °C 11.8 °C 1023.6 hPa Calm   1.6 km/h 94 % 0 mm 0.0 W/m2 CLR
04:25 12.6 °C 11.7 °C 1023.2 hPa Calm   1.6 km/h 94 % 0 mm 0.0 W/m2 CLR
04:30 12.5 °C 11.6 °C 1023.2 hPa Calm   1.6 km/h 94 % 0 mm 0.0 W/m2 CLR
04:35 12.4 °C 11.4 °C 1023.2 hPa Calm   3.2 km/h 94 % 0 mm 0.0 W/m2 CLR
04:40 12.3 °C 11.4 °C 1023.6 hPa Calm   3.2 km/h 94 % 0 mm 0.0 W/m2 CLR
04:45 12.3 °C 11.4 °C 1023.2 hPa Calm   3.2 km/h 94 % 0 mm 0.0 W/m2 CLR
04:50 12.3 °C 11.4 °C 1023.2 hPa Calm   1.6 km/h 94 % 0 mm 0.0 W/m2 CLR
04:55 12.2 °C 11.3 °C 1023.2 hPa WNW 1.6 km/h 3.2 km/h 94 % 0 mm 0.0 W/m2 CLR
05:00 12.2 °C 11.3 °C 1023.2 hPa Calm   3.2 km/h 94 % 0 mm 0.0 W/m2 OVC
05:10 12.2 °C 11.3 °C 1023.2 hPa Calm   1.6 km/h 94 % 0 mm 0.0 W/m2 OVC
05:15 12.3 °C 11.4 °C 1023.2 hPa Calm   1.6 km/h 94 % 0 mm 0.0 W/m2 OVC
05:20 12.3 °C 11.4 °C 1023.2 hPa Calm     94 % 0 mm 0.0 W/m2 OVC
05:25 12.3 °C 11.4 °C 1023.2 hPa West 1.6 km/h 3.2 km/h 94 % 0 mm 0.0 W/m2 OVC
05:30 12.3 °C 11.4 °C 1023.2 hPa Calm   1.6 km/h 94 % 0 mm 0.0 W/m2 OVC
05:35 12.4 °C 11.4 °C 1023.2 hPa Calm     94 % 0 mm 0.0 W/m2 OVC
05:40 12.4 °C 11.4 °C 1023.2 hPa Calm     94 % 0 mm 0.0 W/m2 OVC
05:45 12.4 °C 11.4 °C 1023.2 hPa Calm   1.6 km/h 94 % 0 mm 0.0 W/m2 OVC
05:50 12.5 °C 11.6 °C 1023.6 hPa Calm   3.2 km/h 94 % 0 mm 0.0 W/m2 OVC
05:55 12.7 °C 11.9 °C 1023.2 hPa Calm   3.2 km/h 95 % 0 mm 0.0 W/m2 OVC
06:00 12.9 °C 12.1 °C 1023.2 hPa NW 1.6 km/h 6.4 km/h 95 % 0 mm 0.0 W/m2 OVC
06:05 13.2 °C 12.2 °C 1023.6 hPa WNW 3.2 km/h 8 km/h 94 % 0 mm 0.0 W/m2 OVC
06:10 13.3 °C 12.3 °C 1023.6 hPa WNW 4.8 km/h 8 km/h 94 % 0 mm 0.0 W/m2 OVC
06:15 13.4 °C 12.4 °C 1023.6 hPa WNW 1.6 km/h 6.4 km/h 94 % 0 mm 0.0 W/m2 OVC
06:20 13.9 °C 12.9 °C 1023.6 hPa WNW 4.8 km/h 9.7 km/h 94 % 0 mm 0.0 W/m2 OVC
06:25 14.2 °C 12.9 °C 1023.2 hPa NW 1.6 km/h 9.7 km/h 92 % 0 mm 0.0 W/m2 OVC
06:30 14.6 °C 13.2 °C 1023.6 hPa NW 1.6 km/h 4.8 km/h 91 % 0 mm 0.0 W/m2 OVC
06:35 15 °C 13.4 °C 1023.2 hPa WNW 3.2 km/h 8 km/h 90 % 0 mm 0.0 W/m2 OVC
06:40 15.3 °C 13.5 °C 1023.6 hPa WNW 3.2 km/h 8 km/h 89 % 0 mm 0.0 W/m2 OVC
06:45 15.6 °C 13.3 °C 1023.6 hPa WNW 3.2 km/h 6.4 km/h 86 % 0 mm 0.0 W/m2 OVC
06:50 15.8 °C 13.1 °C 1023.6 hPa WNW 3.2 km/h 8 km/h 84 % 0 mm 0.0 W/m2 OVC
06:55 15.8 °C 12.9 °C 1023.6 hPa WNW 3.2 km/h 8 km/h 83 % 0 mm 0.0 W/m2 OVC
07:05 15.7 °C 12.6 °C 1023.6 hPa NW 3.2 km/h 6.4 km/h 82 % 0 mm 0.0 W/m2 OVC
07:10 15.6 °C 12.7 °C 1023.6 hPa NW 3.2 km/h 8 km/h 83 % 0 mm 0.0 W/m2 OVC
07:15 15.7 °C 12.8 °C 1023.6 hPa WNW 4.8 km/h 9.7 km/h 83 % 0 mm 0.0 W/m2 OVC
07:20 15.7 °C 12.8 °C 1023.9 hPa WNW 3.2 km/h 9.7 km/h 83 % 0 mm 0.0 W/m2 OVC
07:25 15.8 °C 12.9 °C 1023.6 hPa West 4.8 km/h 9.7 km/h 83 % 0 mm 0.0 W/m2 OVC
07:30 15.9 °C 13.2 °C 1023.6 hPa WNW 3.2 km/h 9.7 km/h 84 % 0 mm 0.0 W/m2 OVC
07:35 15.9 °C 13 °C 1023.6 hPa NW 3.2 km/h 9.7 km/h 83 % 0 mm 0.0 W/m2 OVC
07:40 16 °C 12.9 °C 1023.6 hPa WNW 4.8 km/h 9.7 km/h 82 % 0 mm 0.0 W/m2 OVC
07:45 16.1 °C 12.8 °C 1023.6 hPa West 4.8 km/h 9.7 km/h 81 % 0 mm 0.0 W/m2 OVC
07:50 16.2 °C 12.9 °C 1023.6 hPa WNW 1.6 km/h 8 km/h 81 % 0 mm 0.0 W/m2 OVC
07:55 16.3 °C 13.1 °C 1023.9 hPa WNW 1.6 km/h 8 km/h 81 % 0 mm 0.0 W/m2 OVC
08:00 16.5 °C 13.2 °C 1023.6 hPa WNW 1.6 km/h 6.4 km/h 81 % 0 mm 0.0 W/m2 OVC
08:10 16.9 °C 13.2 °C 1023.9 hPa WNW 4.8 km/h 8 km/h 79 % 0 mm 0.0 W/m2 OVC
08:15 18 °C 14.1 °C 1023.6 hPa WNW 3.2 km/h 8 km/h 78 % 0 mm 0.0 W/m2 OVC
08:20 18.3 °C 14 °C 1023.9 hPa NW 3.2 km/h 9.7 km/h 76 % 0 mm 0.0 W/m2 OVC
08:25 18.8 °C 14.3 °C 1023.9 hPa NW 3.2 km/h 9.7 km/h 75 % 0 mm 0.0 W/m2 OVC
08:30 19.2 °C 14.2 °C 1023.6 hPa NW 4.8 km/h 8 km/h 73 % 0 mm 0.0 W/m2 OVC
08:35 19.4 °C 14.2 °C 1023.9 hPa WNW 3.2 km/h 9.7 km/h 72 % 0 mm 0.0 W/m2 OVC
08:40 19.7 °C 14.3 °C 1023.6 hPa WNW 3.2 km/h 8 km/h 71 % 0 mm 0.0 W/m2 OVC
08:45 20.1 °C 14.2 °C 1023.6 hPa NW 1.6 km/h 9.7 km/h 69 % 0 mm 0.0 W/m2 OVC
08:50 20.6 °C 14.9 °C 1023.6 hPa North 3.2 km/h 6.4 km/h 70 % 0 mm 0.0 W/m2 OVC
08:55 20.9 °C 14.6 °C 1023.2 hPa North 4.8 km/h 9.7 km/h 67 % 0 mm 0.0 W/m2 OVC
09:00 21 °C 13.9 °C 1023.6 hPa North 1.6 km/h 8 km/h 64 % 0 mm 0.0 W/m2 OVC
09:10 20.8 °C 14 °C 1023.6 hPa NNW 1.6 km/h 4.8 km/h 65 % 0 mm 0.0 W/m2 OVC
09:20 21.3 °C 13.9 °C 1023.6 hPa NNW 3.2 km/h 8 km/h 63 % 0 mm 0.0 W/m2 OVC
09:25 21.3 °C 13.9 °C 1023.2 hPa NNW 4.8 km/h 9.7 km/h 63 % 0 mm 0.0 W/m2 OVC
09:30 21.5 °C 14.2 °C 1023.6 hPa North 3.2 km/h 9.7 km/h 63 % 0 mm 0.0 W/m2 OVC
09:35 21.6 °C 14.3 °C 1023.2 hPa North 4.8 km/h 9.7 km/h 63 % 0 mm 0.0 W/m2 OVC
09:40 21.5 °C 13.7 °C 1023.9 hPa North 3.2 km/h 14.5 km/h 61 % 0 mm 0.0 W/m2 OVC
09:45 21.4 °C 13.8 °C 1023.6 hPa North 9.7 km/h 12.9 km/h 62 % 0 mm 0.0 W/m2 OVC
09:50 21.3 °C 13.7 °C 1023.2 hPa North 9.7 km/h 12.9 km/h 62 % 0 mm 0.0 W/m2 SCT
09:55 21.2 °C 13.9 °C 1023.2 hPa North 4.8 km/h 9.7 km/h 63 % 0 mm 0.0 W/m2 SCT
10:00 21.3 °C 13.9 °C 1023.6 hPa NNW 3.2 km/h 9.7 km/h 63 % 0 mm 0.0 W/m2 SCT
10:05 21.4 °C 14.6 °C 1023.2 hPa NNW 3.2 km/h 9.7 km/h 65 % 0 mm 0.0 W/m2 SCT
10:10 21.6 °C 14.5 °C 1023.2 hPa NNW 4.8 km/h 9.7 km/h 64 % 0 mm 0.0 W/m2 SCT
10:15 21.6 °C 14.3 °C 1023.2 hPa NNW 4.8 km/h 12.9 km/h 63 % 0 mm 0.0 W/m2 SCT
10:20 21.7 °C 14.1 °C 1023.6 hPa NNW 4.8 km/h 11.3 km/h 62 % 0 mm 0.0 W/m2 SCT
10:25 21.7 °C 14.1 °C 1023.6 hPa NW 4.8 km/h 9.7 km/h 62 % 0 mm 0.0 W/m2 SCT
10:30 21.9 °C 14.6 °C 1023.2 hPa NNW 4.8 km/h 9.7 km/h 63 % 0 mm 0.0 W/m2 SCT
10:35 22.1 °C 14.4 °C 1023.2 hPa North 4.8 km/h 11.3 km/h 62 % 0 mm 0.0 W/m2 SCT
10:40 22.1 °C 14.5 °C 1023.6 hPa North 1.6 km/h 14.5 km/h 62 % 0 mm 0.0 W/m2 SCT
10:45 22.4 °C 14.3 °C 1023.2 hPa North 4.8 km/h 14.5 km/h 60 % 0 mm 0.0 W/m2 SCT
10:50 22.1 °C 13.2 °C 1023.6 hPa North 3.2 km/h 12.9 km/h 57 % 0 mm 0.0 W/m2 SCT
10:55 22.3 °C 13.4 °C 1023.6 hPa North 8 km/h 11.3 km/h 57 % 0 mm 0.0 W/m2 SCT
11:00 22.4 °C 13.4 °C 1023.2 hPa North 3.2 km/h 9.7 km/h 57 % 0 mm 0.0 W/m2 SCT
11:10 23.3 °C 14.1 °C 1023.2 hPa North 8 km/h 9.7 km/h 56 % 0 mm 0.0 W/m2 SCT
11:15 23.5 °C 13.9 °C 1023.6 hPa North 1.6 km/h 9.7 km/h 55 % 0 mm 0.0 W/m2 SCT
11:20 23.6 °C 14.1 °C 1023.6 hPa NNW 4.8 km/h 9.7 km/h 55 % 0 mm 0.0 W/m2 SCT
11:25 23.3 °C 14.1 °C 1023.6 hPa North 3.2 km/h 9.7 km/h 56 % 0 mm 0.0 W/m2 SCT
11:30 23.3 °C 14.3 °C 1023.6 hPa North 3.2 km/h 11.3 km/h 57 % 0 mm 0.0 W/m2 SCT
11:35 23 °C 14 °C 1023.6 hPa NNW 4.8 km/h 11.3 km/h 57 % 0 mm 0.0 W/m2 SCT
11:40 22.8 °C 14.4 °C 1023.2 hPa NNW 1.6 km/h 9.7 km/h 59 % 0 mm 0.0 W/m2 SCT
11:45 23.1 °C 14.4 °C 1023.6 hPa NNW 4.8 km/h 9.7 km/h 58 % 0 mm 0.0 W/m2 SCT
11:50 23.2 °C 14.4 °C 1023.6 hPa North 4.8 km/h 9.7 km/h 58 % 0 mm 0.0 W/m2 SCT
11:55 23.4 °C 14.7 °C 1023.6 hPa NNW 3.2 km/h 8 km/h 58 % 0 mm 0.0 W/m2 SCT
12:00 23.5 °C 14.8 °C 1023.6 hPa NNW 1.6 km/h 8 km/h 58 % 0 mm 0.0 W/m2 SCT
12:05 24.1 °C 14.8 °C 1023.6 hPa NNE 1.6 km/h 4.8 km/h 56 % 0 mm 0.0 W/m2 SCT
12:10 24.4 °C 14.8 °C 1023.6 hPa NNW 3.2 km/h 9.7 km/h 55 % 0 mm 0.0 W/m2 SCT
12:15 24.4 °C 14.2 °C 1023.2 hPa NW 1.6 km/h 9.7 km/h 53 % 0 mm 0.0 W/m2 SCT
12:20 24.4 °C 14.5 °C 1023.2 hPa NNW 1.6 km/h 6.4 km/h 54 % 0 mm 0.0 W/m2 BKN
12:25 24.4 °C 14.5 °C 1023.2 hPa North 1.6 km/h 9.7 km/h 54 % 0 mm 0.0 W/m2 BKN
12:30 24.4 °C 14.5 °C 1023.2 hPa North 3.2 km/h 8 km/h 54 % 0 mm 0.0 W/m2 BKN
12:35 24.4 °C 14.2 °C 1023.2 hPa NW 1.6 km/h 4.8 km/h 53 % 0 mm 0.0 W/m2 BKN
12:40 24.4 °C 14.2 °C 1023.2 hPa NW 4.8 km/h 11.3 km/h 53 % 0 mm 0.0 W/m2 BKN
12:45 24.4 °C 14.5 °C 1023.2 hPa NW 4.8 km/h 9.7 km/h 54 % 0 mm 0.0 W/m2 BKN
12:50 24.4 °C 15.1 °C 1023.2 hPa NNW 4.8 km/h 9.7 km/h 56 % 0 mm 0.0 W/m2 BKN
12:55 24.4 °C 15.1 °C 1023.6 hPa NNW 3.2 km/h 11.3 km/h 56 % 0 mm 0.0 W/m2 BKN
13:00 24.4 °C 15.3 °C 1023.6 hPa North 9.7 km/h 12.9 km/h 57 % 0 mm 0.0 W/m2 BKN
13:10 24.4 °C 15.1 °C 1023.2 hPa North 8 km/h 9.7 km/h 56 % 0 mm 0.0 W/m2 BKN
13:15 25.2 °C 15.2 °C 1023.2 hPa North 9.7 km/h 11.3 km/h 54 % 0 mm 0.0 W/m2 BKN
13:20 24.4 °C 14.5 °C 1023.2 hPa North 4.8 km/h 11.3 km/h 54 % 0 mm 0.0 W/m2 BKN
13:30 24.4 °C 14.8 °C 1023.2 hPa North 3.2 km/h 9.7 km/h 55 % 0 mm 0.0 W/m2 BKN
13:35 25.3 °C 15.3 °C 1023.2 hPa North 9.7 km/h 12.9 km/h 54 % 0 mm 0.0 W/m2 BKN
13:45 25.3 °C 15.3 °C 1023.2 hPa NNW 1.6 km/h 9.7 km/h 54 % 0 mm 0.0 W/m2 BKN
13:50 25.6 °C 15.3 °C 1022.9 hPa NNW 8 km/h 12.9 km/h 53 % 0 mm 0.0 W/m2 BKN
13:55 25.3 °C 14.7 °C 1022.9 hPa North 8 km/h 12.9 km/h 52 % 0 mm 0.0 W/m2 BKN
14:00 25.3 °C 15 °C 1023.2 hPa North 8 km/h 9.7 km/h 53 % 0 mm 0.0 W/m2 BKN
14:05 25.2 °C 14.7 °C 1022.9 hPa North 8 km/h 12.9 km/h 52 % 0 mm 0.0 W/m2 BKN
14:10 25.2 °C 15.2 °C 1022.9 hPa North 4.8 km/h 12.9 km/h 54 % 0 mm 0.0 W/m2 BKN
14:15 25.2 °C 15.2 °C 1022.9 hPa North 3.2 km/h 8 km/h 54 % 0 mm 0.0 W/m2 BKN
14:20 25.8 °C 14.9 °C 1022.9 hPa North 1.6 km/h 9.7 km/h 51 % 0 mm 0.0 W/m2 BKN
14:25 26.5 °C 14.9 °C 1022.9 hPa NNW 8 km/h 9.7 km/h 49 % 0 mm 0.0 W/m2 BKN
14:30 26 °C 14.8 °C 1022.9 hPa NNW 4.8 km/h 9.7 km/h 50 % 0 mm 0.0 W/m2 BKN
14:35 26.3 °C 15.1 °C 1022.6 hPa NW 4.8 km/h 9.7 km/h 50 % 0 mm 0.0 W/m2 BKN
14:40 26.8 °C 15.2 °C 1022.9 hPa NW 1.6 km/h 11.3 km/h 49 % 0 mm 0.0 W/m2 BKN
14:45 27.1 °C 15.2 °C 1022.9 hPa NNE 8 km/h 11.3 km/h 48 % 0 mm 0.0 W/m2 BKN
14:50 27.1 °C 15.2 °C 1022.6 hPa NNE 3.2 km/h 12.9 km/h 48 % 0 mm 0.0 W/m2 BKN
14:55 27.9 °C 15.6 °C 1022.9 hPa NNE 9.7 km/h 11.3 km/h 47 % 0 mm 0.0 W/m2 BKN
15:00 27.6 °C 14.6 °C 1022.9 hPa NNE 4.8 km/h 12.9 km/h 45 % 0 mm 0.0 W/m2 BKN
15:10 27.4 °C 14.4 °C 1022.6 hPa North 8 km/h 9.7 km/h 45 % 0 mm 0.0 W/m2 BKN
15:20 24.5 °C 14.9 °C 1022.9 hPa NNW 8 km/h 14.5 km/h 55 % 0 mm 0.0 W/m2 BKN
15:25 24.4 °C 15.1 °C 1022.6 hPa North 9.7 km/h 16.1 km/h 56 % 0 mm 0.0 W/m2 BKN
15:30 24.4 °C 15.3 °C 1022.6 hPa NNE 9.7 km/h 16.1 km/h 57 % 0 mm 0.0 W/m2 BKN
15:35 25.3 °C 15.3 °C 1022.6 hPa North 4.8 km/h 14.5 km/h 54 % 0 mm 0.0 W/m2 BKN
15:40 25.5 °C 15.2 °C 1022.6 hPa NNE 4.8 km/h 12.9 km/h 53 % 0 mm 0.0 W/m2 BKN
15:50 25.5 °C 14.9 °C 1022.6 hPa North 4.8 km/h 14.5 km/h 52 % 0 mm 0.0 W/m2 BKN
16:00 26.6 °C 15.6 °C 1022.2 hPa NNE 4.8 km/h 12.9 km/h 51 % 0 mm 0.0 W/m2 BKN
16:05 27 °C 15.7 °C 1022.2 hPa North 11.3 km/h 17.7 km/h 50 % 0 mm 0.0 W/m2 BKN
16:10 27.2 °C 15.9 °C 1022.2 hPa North 9.7 km/h 16.1 km/h 50 % 0 mm 0.0 W/m2 BKN
16:15 27.3 °C 15.3 °C 1022.2 hPa NNE 11.3 km/h 12.9 km/h 48 % 0 mm 0.0 W/m2 BKN
16:25 27.6 °C 15.6 °C 1022.6 hPa North 4.8 km/h 9.7 km/h 48 % 0 mm 0.0 W/m2 SCT
16:30 27.5 °C 15.5 °C 1022.2 hPa NNW 9.7 km/h 11.3 km/h 48 % 0 mm 0.0 W/m2 SCT
16:35 27.5 °C 15.5 °C 1022.2 hPa North 4.8 km/h 12.9 km/h 48 % 0 mm 0.0 W/m2 SCT
16:40 27.5 °C 15.8 °C 1022.2 hPa North 3.2 km/h 9.7 km/h 49 % 0 mm 0.0 W/m2 SCT
16:45 27.5 °C 15.2 °C 1022.2 hPa North 4.8 km/h 9.7 km/h 47 % 0 mm 0.0 W/m2 SCT
16:50 27.5 °C 15.2 °C 1021.9 hPa NNW 4.8 km/h 12.9 km/h 47 % 0 mm 0.0 W/m2 SCT
16:55 27.2 °C 15.6 °C 1021.9 hPa North 11.3 km/h 16.1 km/h 49 % 0 mm 0.0 W/m2 SCT
17:00 27 °C 15.7 °C 1022.2 hPa North 8 km/h 16.1 km/h 50 % 0 mm 0.0 W/m2 SCT
17:05 27 °C 15.7 °C 1022.2 hPa North 9.7 km/h 12.9 km/h 50 % 0 mm 0.0 W/m2 SCT
17:10 26.6 °C 15.6 °C 1021.9 hPa North 11.3 km/h 14.5 km/h 51 % 0 mm 0.0 W/m2 SCT
17:20 25.4 °C 15.1 °C 1021.9 hPa North 8 km/h 9.7 km/h 53 % 0 mm 0.0 W/m2 SCT
17:25 25.3 °C 15.1 °C 1022.2 hPa North 4.8 km/h 12.9 km/h 53 % 0 mm 0.0 W/m2 SCT
17:30 24.4 °C 15.1 °C 1022.2 hPa North 11.3 km/h 16.1 km/h 56 % 0 mm 0.0 W/m2 SCT
17:35 24.4 °C 15.3 °C 1022.2 hPa North 9.7 km/h 17.7 km/h 57 % 0 mm 0.0 W/m2 SCT
17:40 24.4 °C 15.9 °C 1022.2 hPa NNW 9.7 km/h 12.9 km/h 59 % 0 mm 0.0 W/m2 SCT
17:45 24.4 °C 15.3 °C 1022.2 hPa NNW 9.7 km/h 16.1 km/h 57 % 0 mm 0.0 W/m2 SCT
17:50 25.2 °C 14.9 °C 1021.9 hPa North 9.7 km/h 12.9 km/h 53 % 0 mm 0.0 W/m2 SCT
17:55 24.4 °C 14.8 °C 1022.2 hPa NNE 4.8 km/h 12.9 km/h 55 % 0 mm 0.0 W/m2 SCT
18:00 24.4 °C 15.1 °C 1021.9 hPa North 4.8 km/h 12.9 km/h 56 % 0 mm 0.0 W/m2 SCT
18:10 25.2 °C 16.1 °C 1021.9 hPa North 3.2 km/h 12.9 km/h 57 % 0 mm 0.0 W/m2 SCT
18:20 25.3 °C 15.9 °C 1021.9 hPa NNW 4.8 km/h 14.5 km/h 56 % 0 mm 0.0 W/m2 SCT
18:25 25.4 °C 15.1 °C 1021.9 hPa North 9.7 km/h 12.9 km/h 53 % 0 mm 0.0 W/m2 SCT
18:30 25.3 °C 15.1 °C 1021.9 hPa North 11.3 km/h 14.5 km/h 53 % 0 mm 0.0 W/m2 SCT
18:35 25.4 °C 15.1 °C 1021.9 hPa North 4.8 km/h 14.5 km/h 53 % 0 mm 0.0 W/m2 SCT
18:40 25.5 °C 15.8 °C 1021.9 hPa North 4.8 km/h 12.9 km/h 55 % 0 mm 0.0 W/m2 SCT
18:45 26.3 °C 15.9 °C 1022.2 hPa North 14.5 km/h 20.9 km/h 53 % 0 mm 0.0 W/m2 SCT
18:50 25.8 °C 15.5 °C 1022.2 hPa North 16.1 km/h 20.9 km/h 53 % 0 mm 0.0 W/m2 SCT
18:55 25.2 °C 15.2 °C 1022.2 hPa North 9.7 km/h 20.9 km/h 54 % 0 mm 0.0 W/m2 SCT
19:00 25.2 °C 15.8 °C 1022.2 hPa North 8 km/h 14.5 km/h 56 % 0 mm 0.0 W/m2 SCT
19:05 25.2 °C 16.1 °C 1022.2 hPa NNE 11.3 km/h 14.5 km/h 57 % 0 mm 0.0 W/m2 SCT
19:15 24.4 °C 15.3 °C 1022.6 hPa North 4.8 km/h 14.5 km/h 57 % 0 mm 0.0 W/m2 SCT
19:20 24.4 °C 15.3 °C 1022.2 hPa North 9.7 km/h 14.5 km/h 57 % 0 mm 0.0 W/m2 SCT
19:25 24.4 °C 15.3 °C 1022.2 hPa North 9.7 km/h 14.5 km/h 57 % 0 mm 0.0 W/m2 SCT
19:30 24.4 °C 15.6 °C 1022.6 hPa North 12.9 km/h 19.3 km/h 58 % 0 mm 0.0 W/m2 SCT
19:35 24.2 °C 15.4 °C 1022.6 hPa North 9.7 km/h 19.3 km/h 58 % 0 mm 0.0 W/m2 SCT
19:40 24.1 °C 15.8 °C 1022.2 hPa North 9.7 km/h 16.1 km/h 60 % 0 mm 0.0 W/m2 SCT
19:45 23.7 °C 15.8 °C 1022.2 hPa North 9.7 km/h 17.7 km/h 61 % 0 mm 0.0 W/m2 SCT
19:50 23.1 °C 15.4 °C 1022.6 hPa North 9.7 km/h 17.7 km/h 62 % 0 mm 0.0 W/m2 SCT
19:55 23.1 °C 15.7 °C 1022.6 hPa North 9.7 km/h 14.5 km/h 63 % 0 mm 0.0 W/m2 SCT
20:00 22.8 °C 15.6 °C 1022.6 hPa North 9.7 km/h 16.1 km/h 64 % 0 mm 0.0 W/m2 SCT
20:10 22.5 °C 15.8 °C 1022.6 hPa North 8 km/h 16.1 km/h 66 % 0 mm 0.0 W/m2 SCT
20:15 22.5 °C 15.6 °C 1022.6 hPa NNE 11.3 km/h 14.5 km/h 65 % 0 mm 0.0 W/m2 SCT
20:20 22.5 °C 15.6 °C 1022.6 hPa North 4.8 km/h 14.5 km/h 65 % 0 mm 0.0 W/m2 SCT
20:25 22.4 °C 15.7 °C 1022.6 hPa North 4.8 km/h 12.9 km/h 66 % 0 mm 0.0 W/m2 SCT
20:30 22.4 °C 15.9 °C 1022.6 hPa NNE 4.8 km/h 12.9 km/h 67 % 0 mm 0.0 W/m2 SCT
20:40 22.1 °C 15.4 °C 1022.6 hPa East 3.2 km/h 11.3 km/h 66 % 0 mm 0.0 W/m2 SCT
20:45 22 °C 15.1 °C 1022.9 hPa East 3.2 km/h 9.7 km/h 65 % 0 mm 0.0 W/m2 SCT
20:50 21.9 °C 15 °C 1022.9 hPa ESE 3.2 km/h 9.7 km/h 65 % 0 mm 0.0 W/m2 SCT
20:55 21.7 °C 14.8 °C 1022.9 hPa Calm   9.7 km/h 65 % 0 mm 0.0 W/m2 SCT
21:00 21.6 °C 15 °C 1022.9 hPa ESE 1.6 km/h 9.7 km/h 66 % 0 mm 0.0 W/m2 SCT
21:05 21.6 °C 15 °C 1022.9 hPa East 4.8 km/h 9.7 km/h 66 % 0 mm 0.0 W/m2 SCT
21:15 20.9 °C 15 °C 1023.2 hPa East 8 km/h 12.9 km/h 69 % 0 mm 0.0 W/m2 SCT
21:20 20.6 °C 14.7 °C 1023.2 hPa East 4.8 km/h 12.9 km/h 69 % 0 mm 0.0 W/m2 SCT
21:25 20.2 °C 14.3 °C 1023.2 hPa ENE 3.2 km/h 12.9 km/h 69 % 0 mm 0.0 W/m2 SCT
21:30 20 °C 14.4 °C 1023.2 hPa ENE 4.8 km/h 8 km/h 70 % 0 mm 0.0 W/m2 SCT
21:35 19.9 °C 14.5 °C 1023.6 hPa ENE 1.6 km/h 8 km/h 71 % 0 mm 0.0 W/m2 SCT
21:40 19.7 °C 14.5 °C 1023.6 hPa East 1.6 km/h 6.4 km/h 72 % 0 mm 0.0 W/m2 SCT
21:45 19.6 °C 14.4 °C 1023.6 hPa East 1.6 km/h 6.4 km/h 72 % 0 mm 0.0 W/m2 SCT
21:50 19.4 °C 14.2 °C 1023.6 hPa East 1.6 km/h 9.7 km/h 72 % 0 mm 0.0 W/m2 BKN
21:55 19.3 °C 14.3 °C 1023.6 hPa East 3.2 km/h 8 km/h 73 % 0 mm 0.0 W/m2 BKN
22:00 19.1 °C 14.2 °C 1023.6 hPa NE 4.8 km/h 11.3 km/h 73 % 0 mm 0.0 W/m2 BKN
22:10 18.7 °C 13.8 °C 1023.9 hPa ENE 4.8 km/h 11.3 km/h 73 % 0 mm 0.0 W/m2 BKN
22:15 18.5 °C 13.6 °C 1023.9 hPa ENE 3.2 km/h 11.3 km/h 73 % 0 mm 0.0 W/m2 BKN
22:20 18.3 °C 13.6 °C 1023.9 hPa ENE 1.6 km/h 12.9 km/h 74 % 0 mm 0.0 W/m2 BKN
22:30 18 °C 13.5 °C 1023.9 hPa ENE 4.8 km/h 12.9 km/h 75 % 0 mm 0.0 W/m2 BKN
22:35 17.7 °C 13.6 °C 1023.9 hPa East 1.6 km/h 12.9 km/h 77 % 0 mm 0.0 W/m2 BKN
22:40 17.5 °C 13.4 °C 1023.9 hPa East 4.8 km/h 12.9 km/h 77 % 0 mm 0.0 W/m2 BKN
22:45 17.4 °C 13.5 °C 1023.9 hPa East 1.6 km/h 12.9 km/h 78 % 0 mm 0.0 W/m2 BKN
22:50 17.3 °C 13.4 °C 1024.3 hPa ENE 1.6 km/h 4.8 km/h 78 % 0 mm 0.0 W/m2 BKN
22:55 17.3 °C 13.6 °C 1024.3 hPa NE 1.6 km/h 4.8 km/h 79 % 0 mm 0.0 W/m2 BKN
23:00 17.1 °C 13.4 °C 1024.3 hPa NE 3.2 km/h 11.3 km/h 79 % 0 mm 0.0 W/m2 BKN
23:05 17.1 °C 13.4 °C 1024.3 hPa WSW 1.6 km/h 8 km/h 79 % 0 mm 0.0 W/m2 BKN
23:10 16.8 °C 13.2 °C 1024.3 hPa SSW 1.6 km/h 11.3 km/h 79 % 0 mm 0.0 W/m2 BKN
23:15 16.7 °C 13.1 °C 1024.3 hPa ESE 1.6 km/h 4.8 km/h 79 % 0 mm 0.0 W/m2 BKN
23:20 16.6 °C 12.9 °C 1024.3 hPa ENE 4.8 km/h 9.7 km/h 79 % 0 mm 0.0 W/m2 BKN
23:25 16.5 °C 12.8 °C 1024.3 hPa NE 1.6 km/h 9.7 km/h 79 % 0 mm 0.0 W/m2 BKN
23:30 16.5 °C 13.1 °C 1024.3 hPa NE 1.6 km/h 11.3 km/h 80 % 0 mm 0.0 W/m2 BKN
23:40 16.4 °C 12.9 °C 1024.3 hPa East 1.6 km/h 12.9 km/h 80 % 0 mm 0.0 W/m2 BKN
23:45 16.4 °C 12.9 °C 1024.3 hPa East 3.2 km/h 11.3 km/h 80 % 0 mm 0.0 W/m2 BKN
23:50 16.3 °C 12.8 °C 1024.6 hPa ENE 4.8 km/h 9.7 km/h 80 % 0 mm 0.0 W/m2 BKN
23:55 16.3 °C 12.8 °C 1024.3 hPa ENE 3.2 km/h 9.7 km/h 80 % 0 mm 0.0 W/m2 BKN
Garrymore Weather Station, Geashill, Tullamore, Offaly, Ireland
Compliments of Weather Underground - 2.25 mb